Time;durP1;ratioP1;P1;durP2;ratioP2;P2;SDS_P1;SDS_P2;PMS_P1;PMS_P2;Temp;Humidity;BMP_temperature;BMP_pressure;BME280_temperature;BME280_humidity;BME280_pressure;Samples;Min_cycle;Max_cycle;Signal;HPM_P1;HPM_P2
2022/03/26 00:00:15;;;;;;;132.70;68.47;;;3.30;99.90;;;;;;5092359;28;20040;-47
2022/03/26 00:02:41;;;;;;;125.22;68.13;;;;;;;;;;5091008;28;20047;-47
2022/03/26 00:05:07;;;;;;;119.97;67.13;;;;;;;;;;5091383;28;20075;-47
2022/03/26 00:07:33;;;;;;;124.68;67.88;;;;;;;;;;5091631;28;20496;-46
2022/03/26 00:09:59;;;;;;;121.75;66.07;;;;;;;;;;5091401;28;20143;-48
2022/03/26 00:12:25;;;;;;;129.30;68.47;;;3.30;99.90;;;;;;5091214;28;20043;-46
2022/03/26 00:14:51;;;;;;;124.78;68.95;;;3.10;99.90;;;;;;5091319;28;20054;-49
2022/03/26 00:17:19;;;;;;;131.48;71.13;;;3.30;99.90;;;;;;5092509;28;20047;-49
2022/03/26 00:19:45;;;;;;;127.20;69.97;;;;;;;;;;5090911;28;20082;-48
2022/03/26 00:22:11;;;;;;;121.72;68.32;;;;;;;;;;5091940;28;20043;-47
2022/03/26 00:24:37;;;;;;;123.07;68.57;;;;;;;;;;5090735;28;20043;-46
2022/03/26 00:27:03;;;;;;;127.03;68.95;;;;;;;;;;5091117;28;20067;-43
2022/03/26 00:29:29;;;;;;;120.88;66.40;;;;;;;;;;5070631;28;20053;-48
2022/03/26 00:31:56;;;;;;;114.40;63.92;;;;;;;;;;5090414;28;21112;-50
2022/03/26 00:34:22;;;;;;;121.03;63.35;;;;;;;;;;5091452;28;20046;-46
2022/03/26 00:36:48;;;;;;;119.55;64.80;;;;;;;;;;5091197;28;20047;-43
2022/03/26 00:39:14;;;;;;;119.32;61.63;;;;;;;;;;5091382;28;20101;-45
2022/03/26 00:41:40;;;;;;;126.78;69.32;;;;;;;;;;5091806;28;20046;-46
2022/03/26 00:44:06;;;;;;;125.70;67.15;;;;;;;;;;5092523;28;20361;-43
2022/03/26 00:46:32;;;;;;;113.35;58.78;;;;;;;;;;5092037;28;20039;-44
2022/03/26 00:48:59;;;;;;;115.65;60.28;;;;;;;;;;5093291;28;20529;-45
2022/03/26 00:51:26;;;;;;;134.13;62.92;;;;;;;;;;5075377;28;20039;-43
2022/03/26 00:53:55;;;;;;;117.00;60.97;;;3.00;99.90;;;;;;5091163;28;20139;-44
2022/03/26 00:56:21;;;;;;;119.72;65.65;;;;;;;;;;5091790;28;20044;-43
2022/03/26 00:58:47;;;;;;;122.63;64.57;;;;;;;;;;5092190;28;20512;-44
2022/03/26 01:01:14;;;;;;;109.22;58.83;;;3.00;99.90;;;;;;5107591;27;20579;-45
2022/03/26 01:03:40;;;;;;;122.28;62.00;;;;;;;;;;5090080;28;20054;-44
2022/03/26 01:06:06;;;;;;;131.00;65.70;;;;;;;;;;5091178;28;20044;-44
2022/03/26 01:08:34;;;;;;;141.77;71.80;;;2.80;99.90;;;;;;5092298;28;20302;-44
2022/03/26 01:11:00;;;;;;;132.70;67.47;;;;;;;;;;5093488;28;20048;-45
2022/03/26 01:13:26;;;;;;;139.10;72.05;;;;;;;;;;5091981;28;20036;-48
2022/03/26 01:15:53;;;;;;;151.55;74.32;;;;;;;;;;5090322;28;20556;-43
2022/03/26 01:18:19;;;;;;;141.57;71.82;;;;;;;;;;5090528;28;20470;-47
2022/03/26 01:20:45;;;;;;;135.55;68.45;;;;;;;;;;5090370;28;20082;-44
2022/03/26 01:23:12;;;;;;;121.10;65.18;;;2.80;99.90;;;;;;5091470;28;20446;-48
2022/03/26 01:25:38;;;;;;;121.80;65.32;;;;;;;;;;5089608;28;20607;-46
2022/03/26 01:28:05;;;;;;;122.38;61.22;;;;;;;;;;5092730;28;20127;-48
2022/03/26 01:30:32;;;;;;;118.32;59.95;;;2.60;99.90;;;;;;5094394;28;20042;-48
2022/03/26 01:32:58;;;;;;;121.68;62.30;;;;;;;;;;5093669;28;20040;-46
2022/03/26 01:35:25;;;;;;;118.28;59.47;;;;;;;;;;5076141;28;20071;-48
2022/03/26 01:37:52;;;;;;;123.20;59.28;;;2.40;99.90;;;;;;5094900;28;20369;-46
2022/03/26 01:40:18;;;;;;;119.95;60.83;;;;;;;;;;5094410;28;20042;-48
2022/03/26 01:42:44;;;;;;;118.43;60.70;;;;;;;;;;5093909;28;20043;-49
2022/03/26 01:45:12;;;;;;;136.35;66.72;;;2.40;99.90;;;;;;5093270;28;20130;-48
2022/03/26 01:47:38;;;;;;;128.45;66.35;;;;;;;;;;5094414;28;20504;-48
2022/03/26 01:50:05;;;;;;;136.20;69.18;;;2.40;99.90;;;;;;5093189;28;20035;-44
2022/03/26 01:52:31;;;;;;;141.95;68.60;;;;;;;;;;5093694;28;20435;-47
2022/03/26 01:54:57;;;;;;;135.93;66.63;;;;;;;;;;5093105;28;20085;-45
2022/03/26 01:57:24;;;;;;;137.75;66.43;;;;;;;;;;5094011;28;20047;-46
2022/03/26 01:59:50;;;;;;;128.02;62.30;;;;;;;;;;5094474;28;20043;-48
2022/03/26 02:02:16;;;;;;;140.88;67.25;;;;;;;;;;5095093;28;20097;-46
2022/03/26 02:04:42;;;;;;;135.00;60.83;;;;;;;;;;5094940;28;20130;-45
2022/03/26 02:07:10;;;;;;;114.45;57.17;;;2.30;99.90;;;;;;5095253;28;20093;-47
2022/03/26 02:09:36;;;;;;;117.55;56.33;;;;;;;;;;5075443;28;20134;-47
2022/03/26 02:12:25;;;;;;;124.95;61.30;;;2.20;99.90;;;;;;5094083;28;20040;-48
2022/03/26 02:14:51;;;;;;;117.20;57.97;;;;;;;;;;5094220;28;20039;-46
2022/03/26 02:17:18;;;;;;;129.02;63.03;;;;;;;;;;5095094;28;20783;-47
2022/03/26 02:19:55;;;;;;;113.82;58.33;;;2.10;99.90;;;;;;5094997;28;20128;-46
2022/03/26 02:22:22;;;;;;;121.85;61.92;;;2.10;99.90;;;;;;5094262;28;20043;-45
2022/03/26 02:24:51;;;;;;;115.72;57.97;;;2.10;99.90;;;;;;5093274;28;20318;-43
2022/03/26 02:27:17;;;;;;;120.57;58.92;;;;;;;;;;5093251;28;20047;-46
2022/03/26 02:29:45;;;;;;;117.30;56.42;;;1.90;99.90;;;;;;5092970;28;20706;-48
2022/03/26 02:32:11;;;;;;;123.00;59.08;;;;;;;;;;5093412;28;20153;-43
2022/03/26 02:34:38;;;;;;;133.77;63.53;;;;;;;;;;5094082;28;20051;-45
2022/03/26 02:37:04;;;;;;;144.35;65.85;;;;;;;;;;5093780;28;20459;-46
2022/03/26 02:39:30;;;;;;;141.05;62.38;;;;;;;;;;5091224;28;20372;-44
2022/03/26 02:41:56;;;;;;;136.52;61.70;;;;;;;;;;5092660;28;20082;-44
2022/03/26 02:44:23;;;;;;;163.13;72.10;;;;;;;;;;5092419;28;20050;-44
2022/03/26 02:46:49;;;;;;;136.40;63.28;;;;;;;;;;5092136;28;20786;-43
2022/03/26 02:49:15;;;;;;;151.75;66.35;;;;;;;;;;5057142;28;20078;-47
2022/03/26 02:51:43;;;;;;;147.07;67.85;;;1.90;99.90;;;;;;5093192;28;20508;-45
2022/03/26 02:54:18;;;;;;;155.35;70.28;;;1.70;99.90;;;;;;5093339;28;20040;-47
2022/03/26 02:56:53;;;;;;;157.30;69.03;;;1.90;99.90;;;;;;5092796;28;20297;-47
2022/03/26 02:59:21;;;;;;;142.45;65.60;;;;;;;;;;5091955;28;20498;-47
2022/03/26 03:01:47;;;;;;;153.27;73.90;;;;;;;;;;5073795;28;20758;-47
2022/03/26 03:04:13;;;;;;;145.00;70.63;;;;;;;;;;5092736;28;20488;-47
2022/03/26 03:06:39;;;;;;;131.52;64.07;;;;;;;;;;5091711;28;20039;-45
2022/03/26 03:09:07;;;;;;;127.88;62.15;;;2.00;99.90;;;;;;5091712;28;20138;-46
2022/03/26 03:11:34;;;;;;;144.75;66.25;;;1.90;99.90;;;;;;5092291;28;20112;-44
2022/03/26 03:14:00;;;;;;;160.02;75.20;;;;;;;;;;5093550;28;20035;-45
2022/03/26 03:16:28;;;;;;;155.80;72.43;;;1.90;99.90;;;;;;5092913;28;20076;-43
2022/03/26 03:18:54;;;;;;;141.27;67.47;;;;;;;;;;5093402;28;20169;-44
2022/03/26 03:21:20;;;;;;;143.50;68.68;;;;;;;;;;5094430;28;20040;-43
2022/03/26 03:23:47;;;;;;;157.65;72.57;;;2.00;99.90;;;;;;5094014;28;20469;-43
2022/03/26 03:26:15;;;;;;;139.95;67.85;;;;;;;;;;5093338;28;20416;-47
2022/03/26 03:28:41;;;;;;;135.77;65.65;;;;;;;;;;5092729;28;20040;-45
2022/03/26 03:31:08;;;;;;;120.68;58.42;;;;;;;;;;5094045;28;20118;-46
2022/03/26 03:33:35;;;;;;;136.13;60.75;;;;;;;;;;5093089;28;20044;-43
2022/03/26 03:36:01;;;;;;;129.32;61.05;;;;;;;;;;5092931;28;20713;-45
2022/03/26 03:38:28;;;;;;;138.05;60.55;;;1.80;99.90;;;;;;5091055;28;20138;-44
2022/03/26 03:40:55;;;;;;;123.70;57.17;;;;;;;;;;5092830;28;21034;-43
2022/03/26 03:43:22;;;;;;;127.88;56.85;;;;;;;;;;5073687;28;20042;-44
2022/03/26 03:45:48;;;;;;;131.38;57.72;;;;;;;;;;5090620;28;20700;-49
2022/03/26 03:48:15;;;;;;;146.20;64.35;;;;;;;;;;5091499;28;20600;-48
2022/03/26 03:50:41;;;;;;;138.13;64.25;;;;;;;;;;5092114;28;20050;-49
2022/03/26 03:53:07;;;;;;;153.40;70.70;;;;;;;;;;5092535;28;20590;-48
2022/03/26 03:55:33;;;;;;;145.32;68.95;;;;;;;;;;5090734;28;20768;-49
2022/03/26 03:57:59;;;;;;;170.10;76.28;;;;;;;;;;5091973;28;20075;-45
2022/03/26 04:00:25;;;;;;;137.30;62.83;;;;;;;;;;5090889;28;20399;-48
2022/03/26 04:02:54;;;;;;;162.35;72.68;;;1.70;99.90;;;;;;5090385;28;20046;-44
2022/03/26 04:05:22;;;;;;;150.55;69.25;;;1.60;99.90;;;;;;5091793;28;20051;-43
2022/03/26 04:07:48;;;;;;;172.30;76.38;;;;;;;;;;5072045;28;20055;-43
2022/03/26 04:10:14;;;;;;;157.93;71.05;;;;;;;;;;5091601;28;20424;-44
2022/03/26 04:12:44;;;;;;;173.18;78.22;;;1.90;99.90;;;;;;5106420;27;20039;-45
2022/03/26 04:15:13;;;;;;;164.82;73.78;;;1.90;99.90;;;;;;5091477;28;20036;-43
2022/03/26 04:17:39;;;;;;;165.90;77.47;;;;;;;;;;5091199;28;20040;-43
2022/03/26 04:20:08;;;;;;;146.02;71.78;;;2.00;99.90;;;;;;5090999;28;20059;-47
2022/03/26 04:22:34;;;;;;;190.55;81.63;;;;;;;;;;5092044;28;20134;-45
2022/03/26 04:25:00;;;;;;;161.60;77.25;;;;;;;;;;5091844;28;20302;-43
2022/03/26 04:27:26;;;;;;;172.50;77.05;;;;;;;;;;5092079;28;20034;-44
2022/03/26 04:29:53;;;;;;;150.05;67.25;;;;;;;;;;5092646;28;20576;-43
2022/03/26 04:32:19;;;;;;;175.13;70.88;;;;;;;;;;5092139;28;20894;-43
2022/03/26 04:34:45;;;;;;;160.55;65.75;;;;;;;;;;5073723;28;20050;-44
2022/03/26 04:37:13;;;;;;;153.15;69.00;;;1.60;99.90;;;;;;5092880;28;20523;-46
2022/03/26 04:39:39;;;;;;;157.27;69.97;;;;;;;;;;5092023;28;20071;-46
2022/03/26 04:42:05;;;;;;;155.18;69.00;;;1.50;99.90;;;;;;5091946;28;20057;-47
2022/03/26 04:44:31;;;;;;;150.10;69.13;;;;;;;;;;5091024;28;20040;-55
2022/03/26 04:46:57;;;;;;;160.18;71.00;;;;;;;;;;5091982;28;20767;-57
2022/03/26 04:49:24;;;;;;;163.82;72.18;;;;;;;;;;5092431;28;20093;-56
2022/03/26 04:51:52;;;;;;;148.30;67.28;;;1.30;99.90;;;;;;5091941;28;20035;-56
2022/03/26 04:54:18;;;;;;;146.57;64.82;;;;;;;;;;5091175;28;20031;-57
2022/03/26 04:56:44;;;;;;;156.45;71.00;;;;;;;;;;5090805;28;20452;-57
2022/03/26 04:59:10;;;;;;;170.85;77.80;;;;;;;;;;5072655;28;20044;-57
2022/03/26 05:01:36;;;;;;;156.30;69.13;;;;;;;;;;5090946;28;20599;-58
2022/03/26 05:04:02;;;;;;;159.57;73.10;;;;;;;;;;5094161;28;20044;-58
2022/03/26 05:06:28;;;;;;;193.75;83.68;;;;;;;;;;5093906;28;20282;-58
2022/03/26 05:08:56;;;;;;;190.23;81.28;;;1.30;99.90;;;;;;5076801;28;20064;-59
2022/03/26 05:11:22;;;;;;;194.20;82.32;;;;;;;;;;5096462;28;20079;-58
2022/03/26 05:13:49;;;;;;;186.68;79.97;;;;;;;;;;5093180;28;20035;-57
2022/03/26 05:16:18;;;;;;;156.43;71.18;;;1.30;99.90;;;;;;5094407;28;20552;-58
2022/03/26 05:18:44;;;;;;;164.75;71.85;;;;;;;;;;5092406;28;20046;-58
2022/03/26 05:21:10;;;;;;;159.07;74.50;;;;;;;;;;5094470;28;20112;-58
2022/03/26 05:23:36;;;;;;;143.13;68.15;;;;;;;;;;5094527;28;20671;-59
2022/03/26 05:26:03;;;;;;;125.10;60.53;;;1.70;99.90;;;;;;5094129;28;20404;-58
2022/03/26 05:28:29;;;;;;;134.52;64.30;;;;;;;;;;5093912;28;20093;-57
2022/03/26 05:30:55;;;;;;;116.63;54.95;;;;;;;;;;5094409;28;20078;-60
2022/03/26 05:33:23;;;;;;;135.00;62.28;;;1.40;99.90;;;;;;5077099;28;20047;-58
2022/03/26 05:35:49;;;;;;;113.00;57.50;;;;;;;;;;5093407;28;20043;-58
2022/03/26 05:38:15;;;;;;;113.28;51.90;;;;;;;;;;5094073;28;20040;-58
2022/03/26 05:40:43;;;;;;;96.90;48.75;;;1.60;99.90;;;;;;5093580;28;20048;-58
2022/03/26 05:43:09;;;;;;;88.18;47.35;;;;;;;;;;5095001;28;20417;-58
2022/03/26 05:45:35;;;;;;;103.35;52.40;;;;;;;;;;5094291;28;20051;-58
2022/03/26 05:48:05;;;;;;;107.47;56.13;;;1.60;99.90;;;;;;5094398;28;20039;-58
2022/03/26 05:50:34;;;;;;;107.82;55.80;;;;;;;;;;5094478;28;20107;-58
2022/03/26 05:53:00;;;;;;;123.47;62.08;;;;;;;;;;5095733;28;20628;-58
2022/03/26 05:55:26;;;;;;;100.40;53.20;;;;;;;;;;5095772;28;20333;-58
2022/03/26 05:57:52;;;;;;;105.55;53.03;;;;;;;;;;5094773;28;20040;-57
2022/03/26 06:00:19;;;;;;;125.57;58.03;;;;;;;;;;5094413;28;20373;-57
2022/03/26 06:02:46;;;;;;;115.93;52.15;;;;;;;;;;5094505;28;20047;-57
2022/03/26 06:05:12;;;;;;;154.60;58.08;;;;;;;;;;5095524;28;20563;-57
2022/03/26 06:07:38;;;;;;;110.25;57.40;;;;;;;;;;5093168;28;20035;-57
2022/03/26 06:10:05;;;;;;;108.15;54.60;;;;;;;;;;5093000;28;20047;-57
2022/03/26 06:12:31;;;;;;;82.20;48.60;;;;;;;;;;5092760;28;20071;-57
2022/03/26 06:14:58;;;;;;;76.28;48.17;;;;;;;;;;5093948;28;20051;-57
2022/03/26 06:17:24;;;;;;;67.90;47.90;;;;;;;;;;5092283;28;20043;-58
2022/03/26 06:19:50;;;;;;;70.45;48.28;;;;;;;;;;5092857;28;20043;-59
2022/03/26 06:22:16;;;;;;;76.63;52.25;;;5.10;99.90;;;;;;5093661;28;20066;-60
2022/03/26 06:24:42;;;;;;;75.63;49.00;;;5.70;99.90;;;;;;5093446;28;20043;-59
2022/03/26 06:27:07;;;;;;;67.82;47.70;;;6.40;99.90;;;;;;5092974;28;20036;-59
2022/03/26 06:29:33;;;;;;;75.25;50.40;;;6.50;99.90;;;;;;5092323;28;20098;-60
2022/03/26 06:32:01;;;;;;;68.30;46.80;;;6.70;99.90;;;;;;5093816;28;20040;-59
2022/03/26 06:34:27;;;;;;;73.57;49.13;;;8.60;99.90;;;;;;5091970;28;20108;-58
2022/03/26 06:36:53;;;;;;;79.88;53.72;;;7.60;99.90;;;;;;5092170;28;20559;-58
2022/03/26 06:39:18;;;;;;;79.95;53.40;;;8.30;99.90;;;;;;5094743;28;20046;-58
2022/03/26 06:41:44;;;;;;;92.03;60.80;;;10.80;99.90;;;;;;5093383;28;20048;-57
2022/03/26 06:44:12;;;;;;;90.55;58.10;;;9.30;99.90;;;;;;5092249;28;20054;-56
2022/03/26 06:46:40;;;;;;;101.15;64.03;;;9.90;99.90;;;;;;5090310;28;20567;-56
2022/03/26 06:49:07;;;;;;;107.05;67.20;;;10.80;99.90;;;;;;5093556;28;20791;-56
2022/03/26 06:51:34;;;;;;;106.93;69.80;;;12.00;99.90;;;;;;5092641;28;20035;-55
2022/03/26 06:54:01;;;;;;;107.90;69.60;;;12.10;99.90;;;;;;5093226;28;20040;-55
2022/03/26 06:56:27;;;;;;;114.13;71.70;;;12.70;99.90;;;;;;5092323;28;20104;-55
2022/03/26 06:58:53;;;;;;;105.53;70.05;;;14.40;99.90;;;;;;5092674;28;20032;-55
2022/03/26 07:01:19;;;;;;;93.70;62.63;;;13.70;99.90;;;;;;5092228;28;20032;-56
2022/03/26 07:03:44;;;;;;;88.63;59.90;;;14.10;99.90;;;;;;5092816;28;20128;-55
2022/03/26 07:06:12;;;;;;;93.88;63.13;;;15.30;99.90;;;;;;5094068;28;20035;-53
2022/03/26 07:08:38;;;;;;;90.40;61.80;;;14.80;99.90;;;;;;5092882;28;20136;-54
2022/03/26 07:11:03;;;;;;;94.03;63.15;;;14.20;99.90;;;;;;5092609;28;20039;-54
2022/03/26 07:13:29;;;;;;;88.03;62.55;;;14.80;99.90;;;;;;5092939;28;20036;-55
2022/03/26 07:15:56;;;;;;;87.72;59.80;;;14.10;99.90;;;;;;5094041;28;20098;-53
2022/03/26 07:18:22;;;;;;;88.95;60.50;;;13.80;99.90;;;;;;5093178;28;20031;-54
2022/03/26 07:20:48;;;;;;;92.20;64.05;;;13.40;99.90;;;;;;5091471;28;20036;-54
2022/03/26 07:23:15;;;;;;;91.65;65.00;;;16.00;99.90;;;;;;5091805;28;20744;-53
2022/03/26 07:25:43;;;;;;;86.40;58.20;;;12.80;99.90;;;;;;5091057;28;20480;-53
2022/03/26 07:28:09;;;;;;;87.10;60.55;;;14.60;99.90;;;;;;5092255;28;20051;-56
2022/03/26 07:30:36;;;;;;;80.50;58.28;;;15.30;99.90;;;;;;5090730;28;20055;-54
2022/03/26 07:33:02;;;;;;;79.25;55.45;;;15.60;99.90;;;;;;5090336;28;20668;-55
2022/03/26 07:35:31;;;;;;;80.15;56.03;;;17.30;99.90;;;;;;5074243;28;20039;-55
2022/03/26 07:37:57;;;;;;;77.95;56.58;;;15.50;99.90;;;;;;5092406;28;20035;-54
2022/03/26 07:40:23;;;;;;;81.03;57.75;;;15.70;99.90;;;;;;5090642;28;20039;-54
2022/03/26 07:42:48;;;;;;;75.03;56.40;;;15.80;99.90;;;;;;5091349;28;20035;-53
2022/03/26 07:45:14;;;;;;;83.38;56.65;;;16.00;99.90;;;;;;5090739;28;20184;-54
2022/03/26 07:47:40;;;;;;;79.28;54.15;;;15.70;99.90;;;;;;5090631;28;20039;-55
2022/03/26 07:50:07;;;;;;;72.80;52.75;;;16.00;99.90;;;;;;5090494;28;20492;-50
2022/03/26 07:52:34;;;;;;;80.85;53.63;;;15.40;99.90;;;;;;5090620;28;21006;-54
2022/03/26 07:55:00;;;;;;;77.60;53.58;;;15.20;99.90;;;;;;5092012;28;20055;-53
2022/03/26 07:57:27;;;;;;;77.30;58.17;;;16.30;99.90;;;;;;5091362;28;20043;-54
2022/03/26 07:59:53;;;;;;;130.50;77.38;;;15.60;99.90;;;;;;5090367;28;20432;-55
2022/03/26 08:02:18;;;;;;;1999.90;856.97;;;16.30;99.90;;;;;;5090376;28;20040;-55
2022/03/26 08:04:45;;;;;;;1798.90;864.17;;;16.80;99.90;;;;;;5089458;28;20041;-55
2022/03/26 08:07:13;;;;;;;902.20;806.38;;;17.30;99.90;;;;;;5089291;28;20685;-55
2022/03/26 08:09:39;;;;;;;763.50;693.00;;;19.80;99.90;;;;;;5089518;28;20050;-55
2022/03/26 08:12:05;;;;;;;916.90;817.70;;;18.10;99.90;;;;;;5091696;28;20051;-55
2022/03/26 08:14:34;;;;;;;709.55;648.03;;;18.70;99.90;;;;;;5091598;28;20041;-56
2022/03/26 08:17:00;;;;;;;678.95;622.55;;;18.70;99.90;;;;;;5091179;28;20121;-56
2022/03/26 08:19:27;;;;;;;704.95;641.88;;;18.50;99.90;;;;;;5093356;28;20039;-57
2022/03/26 08:21:53;;;;;;;306.88;274.25;;;20.60;99.90;;;;;;5092405;28;20032;-55
2022/03/26 08:24:19;;;;;;;71.35;49.40;;;18.50;99.90;;;;;;5091724;28;20303;-55
2022/03/26 08:26:45;;;;;;;63.15;44.97;;;20.30;99.90;;;;;;5092135;28;20044;-55
2022/03/26 08:29:13;;;;;;;62.50;45.40;;;18.00;99.90;;;;;;5090603;28;20086;-54
2022/03/26 08:31:38;;;;;;;60.70;43.92;;;18.70;99.90;;;;;;5093334;28;20714;-54
2022/03/26 08:34:04;;;;;;;59.83;44.00;;;17.70;99.90;;;;;;5091825;28;20032;-53
2022/03/26 08:36:35;;;;;;;58.28;40.65;;;16.50;99.90;;;;;;5090736;28;20032;-55
2022/03/26 08:39:00;;;;;;;55.58;38.28;;;15.90;99.90;;;;;;5091662;28;20385;-53
2022/03/26 08:41:26;;;;;;;50.17;35.15;;;15.70;99.90;;;;;;5091635;28;20051;-53
2022/03/26 08:43:56;;;;;;;52.30;36.35;;;16.10;99.90;;;;;;5091886;28;20253;-52
2022/03/26 08:46:23;;;;;;;54.65;35.30;;;17.80;99.90;;;;;;5091580;28;20388;-55
2022/03/26 08:48:50;;;;;;;50.05;36.65;;;16.70;99.90;;;;;;5089420;28;20283;-55
2022/03/26 08:51:17;;;;;;;54.97;37.17;;;18.70;99.90;;;;;;5090345;28;20044;-54
2022/03/26 08:53:42;;;;;;;49.67;36.30;;;16.90;99.90;;;;;;5091086;28;20148;-55
2022/03/26 08:56:08;;;;;;;41.08;31.73;;;16.40;99.90;;;;;;5089765;28;20043;-53
2022/03/26 08:58:34;;;;;;;43.97;33.38;;;18.00;99.90;;;;;;5071236;28;20040;-55
2022/03/26 09:01:01;;;;;;;47.13;33.95;;;17.20;99.90;;;;;;5090326;28;20090;-54
2022/03/26 09:03:27;;;;;;;44.08;32.25;;;16.20;99.90;;;;;;5090688;28;20047;-54
2022/03/26 09:05:55;;;;;;;41.75;31.65;;;15.80;99.90;;;;;;5090214;28;20054;-53
2022/03/26 09:08:20;;;;;;;44.05;32.88;;;15.90;99.90;;;;;;5090433;28;20039;-55
2022/03/26 09:10:46;;;;;;;184.18;157.93;;;16.10;99.90;;;;;;5090301;28;20055;-54
2022/03/26 09:13:12;;;;;;;645.22;583.15;;;16.10;99.90;;;;;;5090179;28;20035;-53
2022/03/26 09:15:38;;;;;;;798.53;722.95;;;16.00;99.90;;;;;;5090295;28;20043;-54
2022/03/26 09:18:05;;;;;;;248.18;226.10;;;16.20;99.90;;;;;;5090245;28;24983;-54
2022/03/26 09:20:32;;;;;;;944.75;846.40;;;16.40;99.90;;;;;;5092572;28;20058;-54
2022/03/26 09:22:58;;;;;;;929.08;839.45;;;16.80;99.90;;;;;;5091130;28;20122;-55
2022/03/26 09:25:24;;;;;;;800.20;726.97;;;17.20;99.90;;;;;;5090857;28;20046;-55
2022/03/26 09:27:52;;;;;;;772.60;701.05;;;17.70;99.90;;;;;;5090257;28;20104;-54
2022/03/26 09:30:18;;;;;;;897.63;815.75;;;18.20;99.90;;;;;;5091856;28;20559;-55
2022/03/26 09:32:45;;;;;;;855.65;779.10;;;18.60;99.90;;;;;;5091102;28;20168;-55
2022/03/26 09:35:12;;;;;;;902.83;814.80;;;18.60;99.90;;;;;;5089818;28;20695;-55
2022/03/26 09:37:40;;;;;;;912.58;823.72;;;21.00;99.90;;;;;;5091574;28;20040;-55
2022/03/26 09:40:07;;;;;;;774.15;707.42;;;20.50;99.90;;;;;;5089782;28;20131;-55
2022/03/26 09:42:35;;;;;;;709.05;653.40;;;19.30;99.90;;;;;;5071462;28;20055;-55
2022/03/26 09:45:03;;;;;;;758.95;685.28;;;19.40;99.90;;;;;;5089799;28;20055;-55
2022/03/26 09:47:29;;;;;;;637.85;551.45;;;19.50;99.90;;;;;;5090028;28;20051;-55
2022/03/26 09:49:55;;;;;;;120.53;109.30;;;19.70;99.90;;;;;;5094249;28;20124;-55
2022/03/26 09:52:21;;;;;;;36.08;32.55;;;19.80;99.90;;;;;;5074362;28;20043;-57
2022/03/26 09:54:47;;;;;;;38.55;28.77;;;21.40;99.90;;;;;;5092210;28;20475;-55
2022/03/26 09:57:13;;;;;;;74.97;67.13;;;18.80;99.90;;;;;;5074842;28;20051;-54
2022/03/26 09:59:38;;;;;;;116.22;105.07;;;18.30;99.90;;;;;;5099013;28;20036;-47
2022/03/26 10:02:04;;;;;;;146.00;131.73;;;18.20;99.90;;;;;;5101694;28;20407;-51
2022/03/26 10:04:57;;;;;;;431.88;390.35;;;17.70;99.90;;;;;;5100760;28;20067;-52
2022/03/26 10:07:29;;;;;;;271.50;245.13;;;17.70;99.90;;;;;;5096574;28;20060;-50
2022/03/26 10:09:57;;;;;;;318.65;285.83;;;17.50;99.90;;;;;;5099452;28;20138;-53
2022/03/26 10:12:26;;;;;;;521.67;474.67;;;17.30;99.90;;;;;;5082235;28;20157;-50
2022/03/26 10:14:59;;;;;;;502.05;453.45;;;17.10;99.90;;;;;;5100260;28;20772;-51
2022/03/26 10:17:30;;;;;;;866.50;777.80;;;17.20;99.90;;;;;;5082358;28;20452;-52
2022/03/26 10:20:08;;;;;;;613.55;563.30;;;17.20;99.90;;;;;;5099920;28;20112;-51
2022/03/26 10:22:42;;;;;;;829.28;746.47;;;17.20;99.90;;;;;;5099662;28;20563;-51
2022/03/26 10:25:22;;;;;;;727.95;668.58;;;17.40;99.90;;;;;;5082543;28;20040;-51
2022/03/26 10:27:51;;;;;;;722.17;661.55;;;17.30;99.90;;;;;;5099418;28;20047;-48
2022/03/26 10:32:38;;;;;;;664.42;615.05;;;17.70;99.90;;;;;;5080946;28;20547;-49
2022/03/26 10:33:20;;;;;;;716.58;659.83;;;17.40;99.90;;;;;;5099578;28;20470;-52
2022/03/26 10:36:01;;;;;;;689.88;636.25;;;17.50;99.90;;;;;;5098488;28;20089;-52
2022/03/26 10:38:32;;;;;;;657.35;607.50;;;17.50;99.90;;;;;;5098922;28;20062;-51
2022/03/26 10:40:59;;;;;;;691.92;640.10;;;17.40;99.90;;;;;;5098958;28;20046;-53
2022/03/26 10:43:26;;;;;;;829.60;754.53;;;17.60;99.90;;;;;;5099498;28;20043;-51
2022/03/26 10:45:55;;;;;;;833.95;756.38;;;17.60;99.90;;;;;;5099107;28;20388;-53
2022/03/26 10:48:39;;;;;;;980.47;847.42;;;17.60;99.90;;;;;;5080258;28;20074;-49
2022/03/26 10:51:10;;;;;;;769.60;702.92;;;17.50;99.90;;;;;;5080787;28;20105;-50
2022/03/26 10:53:46;;;;;;;802.67;732.47;;;17.60;99.90;;;;;;5099175;28;20044;-48
2022/03/26 10:56:14;;;;;;;867.90;786.05;;;18.20;99.90;;;;;;5116291;27;20044;-48
2022/03/26 10:58:41;;;;;;;743.53;681.55;;;17.80;99.90;;;;;;5099754;28;20061;-47
2022/03/26 11:01:07;;;;;;;735.95;673.30;;;17.70;99.90;;;;;;5098967;28;20070;-51
2022/03/26 11:03:34;;;;;;;848.33;766.88;;;19.50;99.90;;;;;;5099541;28;20392;-50
2022/03/26 11:06:00;;;;;;;754.38;687.45;;;17.60;99.90;;;;;;5100237;28;20454;-50
2022/03/26 11:08:34;;;;;;;786.50;713.75;;;19.10;99.90;;;;;;5100087;28;20036;-52
2022/03/26 11:11:05;;;;;;;761.35;692.30;;;19.50;99.90;;;;;;5100021;28;20040;-48
2022/03/26 11:13:32;;;;;;;656.88;600.78;;;17.90;99.90;;;;;;5080090;28;20411;-51
2022/03/26 11:16:03;;;;;;;902.47;810.53;;;18.50;99.90;;;;;;5095244;28;20504;-51
2022/03/26 11:18:47;;;;;;;814.08;733.08;;;17.70;99.90;;;;;;5092465;28;20058;-51
2022/03/26 11:21:46;;;;;;;700.85;642.55;;;17.70;99.90;;;;;;5091344;28;20043;-52
2022/03/26 11:24:51;;;;;;;840.30;759.53;;;17.70;99.90;;;;;;5092572;28;20572;-52
2022/03/26 11:27:29;;;;;;;817.35;738.35;;;17.80;99.90;;;;;;5007871;28;20056;-48
2022/03/26 11:30:16;;;;;;;665.28;610.42;;;17.60;99.90;;;;;;5007179;28;20061;-47
2022/03/26 11:32:44;;;;;;;638.90;586.38;;;17.70;99.90;;;;;;5006684;28;20682;-48
2022/03/26 11:35:19;;;;;;;673.17;619.85;;;17.50;99.90;;;;;;5008655;28;20083;-55
2022/03/26 11:37:54;;;;;;;682.33;625.90;;;19.80;99.90;;;;;;5008208;28;20049;-48
2022/03/26 11:40:44;;;;;;;691.95;636.85;;;17.50;99.90;;;;;;5008640;28;20041;-48
2022/03/26 11:43:11;;;;;;;703.28;643.88;;;17.80;99.90;;;;;;5008198;28;20087;-47
2022/03/26 11:51:26;;;;;;;;;;;17.60;99.90;;;;;;5008948;28;20559;-47
2022/03/26 11:54:07;;;;;;;651.88;599.75;;;17.40;99.90;;;;;;5007874;28;19921;-52
2022/03/26 11:56:34;;;;;;;542.75;501.73;;;17.50;99.90;;;;;;5009051;28;20041;-54
2022/03/26 11:59:05;;;;;;;692.22;635.90;;;18.10;99.90;;;;;;5008695;28;20164;-48
2022/03/26 12:01:35;;;;;;;867.65;777.08;;;17.30;99.90;;;;;;5007846;28;20088;-47
2022/03/26 12:04:24;;;;;;;682.75;624.33;;;17.10;99.90;;;;;;5036019;28;20087;-46
2022/03/26 12:07:00;;;;;;;848.33;767.58;;;17.20;99.90;;;;;;5092099;28;20559;-50
2022/03/26 12:09:30;;;;;;;749.70;683.47;;;17.30;99.90;;;;;;5093081;28;20051;-49
2022/03/26 12:12:05;;;;;;;727.08;661.38;;;17.20;99.90;;;;;;5091770;28;20046;-47
2022/03/26 12:14:33;;;;;;;812.15;732.80;;;17.30;99.90;;;;;;5091692;28;20036;-46
2022/03/26 12:16:59;;;;;;;687.30;626.65;;;17.50;99.90;;;;;;5093857;28;20039;-47
2022/03/26 12:19:47;;;;;;;811.28;730.13;;;17.90;99.90;;;;;;5091766;28;20283;-46
2022/03/26 12:22:41;;;;;;;657.90;604.35;;;17.40;99.90;;;;;;5090025;28;20046;-48
2022/03/26 12:25:07;;;;;;;921.13;827.38;;;17.30;99.90;;;;;;5002869;28;20955;-46
2022/03/26 12:27:38;;;;;;;934.75;837.60;;;17.60;99.90;;;;;;5005629;28;20152;-47
2022/03/26 12:30:04;;;;;;;1138.85;895.20;;;17.90;99.90;;;;;;5006538;28;20049;-47
2022/03/26 12:32:31;;;;;;;973.08;871.20;;;17.80;99.90;;;;;;5004413;28;20187;-49
2022/03/26 12:35:02;;;;;;;726.80;667.42;;;17.70;99.90;;;;;;5007731;28;20512;-46
2022/03/26 12:37:28;;;;;;;816.47;737.75;;;18.00;99.90;;;;;;5004273;28;20053;-47
2022/03/26 12:39:55;;;;;;;794.88;719.70;;;18.20;99.90;;;;;;5003548;28;20705;-46
2022/03/26 12:42:22;;;;;;;690.33;635.22;;;17.20;99.90;;;;;;5003138;28;20073;-47
2022/03/26 12:44:48;;;;;;;714.20;653.72;;;17.80;99.90;;;;;;5005316;28;20698;-47
2022/03/26 12:47:27;;;;;;;633.30;583.63;;;18.20;99.90;;;;;;5006714;28;20045;-48
2022/03/26 12:49:58;;;;;;;679.25;622.67;;;16.50;99.90;;;;;;5004919;28;20136;-49
2022/03/26 12:52:26;;;;;;;968.30;866.08;;;16.60;99.90;;;;;;5002701;28;20766;-49
2022/03/26 12:54:53;;;;;;;908.17;815.55;;;17.30;99.90;;;;;;5004779;28;20152;-48
2022/03/26 12:57:19;;;;;;;858.83;779.08;;;16.30;99.90;;;;;;4990257;28;20124;-46
2022/03/26 12:59:52;;;;;;;853.72;779.80;;;16.60;99.90;;;;;;5004129;28;20575;-46
2022/03/26 13:02:18;;;;;;;1544.00;966.80;;;17.00;99.90;;;;;;5056206;28;20135;-49
2022/03/26 13:04:54;;;;;;;1440.72;952.88;;;16.30;99.90;;;;;;5089079;28;20040;-45